createdAt,value
2022-08-05T00:00:54.992Z,77.40
2022-08-05T00:01:54.958Z,77.81
2022-08-05T00:02:55.973Z,78.70
2022-08-05T00:03:54.861Z,76.91
2022-08-05T00:04:55.492Z,78.74
2022-08-05T00:06:06.702Z,79.64
2022-08-05T00:06:55.819Z,79.94
2022-08-05T00:08:00.213Z,79.94
2022-08-05T00:08:56.640Z,80.77
2022-08-05T00:09:54.860Z,81.27
2022-08-05T00:10:54.791Z,81.77
2022-08-05T00:11:56.171Z,82.17
2022-08-05T00:12:57.041Z,82.77
2022-08-05T00:13:54.743Z,82.31
2022-08-05T00:14:54.733Z,83.51
2022-08-05T00:15:58.001Z,81.71
2022-08-05T00:16:54.822Z,82.81
2022-08-05T00:17:54.823Z,83.61
2022-08-05T00:18:54.705Z,84.05
2022-08-05T00:20:02.646Z,82.25
2022-08-05T00:20:55.734Z,83.65
2022-08-05T00:21:54.686Z,83.15
2022-08-05T00:22:59.569Z,83.19
2022-08-05T00:24:10.478Z,83.89
2022-08-05T00:24:55.624Z,84.69
2022-08-05T00:25:54.614Z,84.19
2022-08-05T00:26:54.589Z,82.93
2022-08-05T00:27:54.622Z,80.83
2022-08-05T00:28:54.588Z,82.33
2022-08-05T00:29:54.576Z,73.79
2022-08-05T00:30:54.544Z,73.66
2022-08-05T00:32:12.410Z,74.08
2022-08-05T00:32:55.515Z,70.95
2022-08-05T00:34:55.133Z,71.72
2022-08-05T00:35:06.321Z,74.85
2022-08-05T00:36:15.837Z,75.05
2022-08-05T00:37:13.074Z,74.25
2022-08-05T00:37:55.543Z,76.15
2022-08-05T00:38:54.591Z,75.74
2022-08-05T00:39:57.952Z,77.88
2022-08-05T00:40:54.831Z,78.88
2022-08-05T00:41:55.794Z,79.41
2022-08-05T00:42:54.417Z,80.26
2022-08-05T00:43:54.415Z,81.56
2022-08-05T00:44:54.484Z,82.79
2022-08-05T00:45:54.575Z,83.43
2022-08-05T00:47:02.052Z,83.83
2022-08-05T00:47:57.699Z,84.57
2022-08-05T00:48:55.339Z,84.17
2022-08-05T00:49:54.336Z,81.91
2022-08-05T00:50:54.368Z,81.61
2022-08-05T00:51:54.345Z,82.77
2022-08-05T00:52:55.283Z,83.37
2022-08-05T00:54:02.086Z,86.27
2022-08-05T00:54:55.995Z,86.87
2022-08-05T00:55:54.451Z,86.47
2022-08-05T00:56:54.476Z,87.07
2022-08-05T00:57:55.515Z,86.68
2022-08-05T00:58:54.334Z,86.71
2022-08-05T00:59:54.272Z,79.30
2022-08-05T01:00:54.459Z,83.41
2022-08-05T01:01:54.265Z,84.11
2022-08-05T01:02:54.399Z,85.87
2022-08-05T01:03:54.301Z,85.97
2022-08-05T01:04:54.210Z,86.52
2022-08-05T01:05:54.854Z,87.41
2022-08-05T01:06:54.956Z,87.41
2022-08-05T01:08:31.645Z,87.21
2022-08-05T01:08:55.154Z,87.21
2022-08-05T01:09:55.693Z,86.52
2022-08-05T01:10:54.107Z,86.21
2022-08-05T01:11:54.184Z,86.41
2022-08-05T01:13:05.314Z,87.82
2022-08-05T01:13:57.720Z,88.42
2022-08-05T01:14:54.196Z,88.32
2022-08-05T01:15:54.210Z,88.42
2022-08-05T01:16:54.038Z,88.71
2022-08-05T01:17:54.068Z,88.86
2022-08-05T01:18:56.555Z,88.36
2022-08-05T01:20:01.964Z,88.66
2022-08-05T01:20:55.031Z,88.56
2022-08-05T01:21:54.209Z,88.86
2022-08-05T01:22:54.101Z,88.86
2022-08-05T01:23:54.027Z,88.56
2022-08-05T01:24:53.998Z,89.26
2022-08-05T01:25:54.140Z,89.06
2022-08-05T01:26:53.959Z,89.56
2022-08-05T01:27:55.360Z,89.96
2022-08-05T01:28:53.918Z,90.20
2022-08-05T01:29:54.662Z,90.20
2022-08-05T01:30:55.181Z,89.50
2022-08-05T01:31:53.942Z,88.70
2022-08-05T01:32:54.868Z,89.40
2022-08-05T01:33:53.917Z,89.50
2022-08-05T01:34:53.972Z,89.70
2022-08-05T01:35:53.901Z,89.70
2022-08-05T01:36:53.910Z,89.61
2022-08-05T01:37:54.666Z,90.11
2022-08-05T01:38:53.843Z,90.50
2022-08-05T01:39:53.915Z,90.70
2022-08-05T01:40:53.791Z,90.91
2022-08-05T01:41:53.761Z,90.81
2022-08-05T01:42:53.755Z,91.01
2022-08-05T01:43:53.794Z,90.91
2022-08-05T01:44:54.655Z,91.05
2022-08-05T01:45:56.566Z,90.05
2022-08-05T01:46:53.835Z,90.41
2022-08-05T01:47:54.533Z,89.95
2022-08-05T01:48:53.690Z,89.65
2022-08-05T01:50:02.078Z,90.00
2022-08-05T01:50:54.680Z,90.91
2022-08-05T01:51:53.670Z,91.41
2022-08-05T01:52:53.651Z,91.41
2022-08-05T01:53:57.467Z,91.71
2022-08-05T01:54:54.629Z,91.51
2022-08-05T01:55:53.602Z,91.45
2022-08-05T01:58:12.247Z,91.45
2022-08-05T01:58:12.974Z,91.45
2022-08-05T01:58:54.571Z,91.35
2022-08-05T01:59:53.562Z,91.25
2022-08-05T02:00:53.663Z,90.85
2022-08-05T02:01:54.828Z,90.45
2022-08-05T02:02:55.014Z,91.25
2022-08-05T02:03:53.523Z,91.35
2022-08-05T02:04:53.513Z,91.35
2022-08-05T02:05:53.568Z,91.39
2022-08-05T02:06:54.492Z,91.50
2022-08-05T02:07:56.266Z,92.00
2022-08-05T02:08:58.254Z,92.30
2022-08-05T02:09:53.460Z,92.40
2022-08-05T02:10:53.475Z,91.89
2022-08-05T02:11:53.422Z,91.69
2022-08-05T02:12:53.423Z,91.69
2022-08-05T02:13:54.107Z,91.19
2022-08-05T02:14:53.413Z,91.09
2022-08-05T02:15:53.386Z,91.09
2022-08-05T02:16:53.530Z,91.50
2022-08-05T02:18:28.825Z,91.39
2022-08-05T02:18:54.363Z,91.69
2022-08-05T02:19:53.335Z,91.89
2022-08-05T02:20:53.354Z,92.30
2022-08-05T02:21:53.345Z,92.20
2022-08-05T02:22:53.314Z,92.10
2022-08-05T02:23:53.293Z,92.50
2022-08-05T02:24:53.303Z,92.60
2022-08-05T02:25:53.283Z,92.40
2022-08-05T02:26:54.884Z,92.50
2022-08-05T02:27:59.289Z,92.54
2022-08-05T02:28:54.253Z,92.65
2022-08-05T02:29:59.408Z,92.74
2022-08-05T02:30:56.553Z,92.94
2022-08-05T02:31:53.205Z,93.15
2022-08-05T02:32:53.214Z,92.94
2022-08-05T02:33:57.399Z,92.65
2022-08-05T02:34:54.903Z,92.58
2022-08-05T02:35:56.213Z,92.94
2022-08-05T02:36:54.164Z,93.35
2022-08-05T02:37:54.111Z,93.35
2022-08-05T02:38:54.010Z,93.15
2022-08-05T02:39:53.165Z,92.14
2022-08-05T02:40:54.098Z,92.34
2022-08-05T02:42:00.916Z,92.54
2022-08-05T02:42:54.333Z,92.54
2022-08-05T02:44:06.524Z,92.65
2022-08-05T02:44:54.074Z,92.94
2022-08-05T02:45:54.001Z,92.94
2022-08-05T02:46:58.892Z,92.74
2022-08-05T02:48:11.486Z,92.84
2022-08-05T02:48:54.035Z,93.04
2022-08-05T02:49:53.025Z,93.15
2022-08-05T02:50:53.016Z,93.35
2022-08-05T02:52:03.946Z,93.35
2022-08-05T02:52:54.029Z,93.35
2022-08-05T02:53:54.698Z,93.44
2022-08-05T02:54:52.975Z,93.74
2022-08-05T02:55:59.532Z,94.05
2022-08-05T02:56:53.947Z,93.85
2022-08-05T02:58:12.348Z,93.74
2022-08-05T02:58:53.925Z,93.74
2022-08-05T02:59:52.945Z,93.74
2022-08-05T03:00:53.695Z,93.65
2022-08-05T03:01:53.439Z,93.55
2022-08-05T03:02:52.886Z,93.55
2022-08-05T03:04:04.395Z,93.44
2022-08-05T03:04:53.866Z,93.44
2022-08-05T03:06:55.670Z,93.50
2022-08-05T03:06:59.419Z,93.50
2022-08-05T03:08:06.828Z,93.40
2022-08-05T03:08:53.807Z,93.30
2022-08-05T03:09:52.828Z,93.20
2022-08-05T03:11:02.333Z,93.20
2022-08-05T03:11:57.851Z,93.10
2022-08-05T03:12:52.766Z,93.10
2022-08-05T03:14:03.053Z,93.30
2022-08-05T03:14:53.746Z,93.10
2022-08-05T03:15:52.717Z,92.80
2022-08-05T03:16:53.521Z,90.73
2022-08-05T03:17:53.987Z,90.03
2022-08-05T03:18:52.708Z,87.98
2022-08-05T03:19:52.688Z,78.96
2022-08-05T03:20:52.707Z,76.37
2022-08-05T03:21:53.506Z,85.80
2022-08-05T03:22:57.247Z,87.60
2022-08-05T03:23:52.627Z,88.24
2022-08-05T03:24:52.643Z,88.44
2022-08-05T03:26:05.005Z,88.95
2022-08-05T03:26:53.618Z,89.25
2022-08-05T03:27:58.931Z,88.64
2022-08-05T03:28:53.595Z,88.75
2022-08-05T03:30:07.339Z,89.14
2022-08-05T03:30:53.569Z,89.39
2022-08-05T03:31:56.978Z,89.69
2022-08-05T03:32:53.638Z,90.09
2022-08-05T03:33:52.985Z,89.99
2022-08-05T03:34:52.528Z,89.99
2022-08-05T03:35:52.500Z,89.69
2022-08-05T03:36:52.869Z,89.89
2022-08-05T03:37:53.521Z,89.69
2022-08-05T03:38:53.383Z,90.29
2022-08-05T03:39:58.674Z,90.39
2022-08-05T03:40:53.506Z,90.49
2022-08-05T03:41:52.618Z,86.08
2022-08-05T03:42:53.240Z,80.06
2022-08-05T03:44:09.121Z,85.44
2022-08-05T03:44:53.417Z,87.54
2022-08-05T03:45:57.216Z,87.94
2022-08-05T03:46:53.389Z,86.74
2022-08-05T03:47:56.833Z,86.14
2022-08-05T03:48:53.377Z,87.24
2022-08-05T03:49:52.886Z,83.63
2022-08-05T03:50:52.401Z,83.93
2022-08-05T03:52:48.288Z,85.63
2022-08-05T03:55:51.936Z,88.40
2022-08-05T03:55:53.789Z,84.89
2022-08-05T03:56:00.949Z,87.80
2022-08-05T03:56:05.970Z,88.80
2022-08-05T03:56:53.280Z,87.80
2022-08-05T03:57:52.268Z,87.20
2022-08-05T03:58:52.261Z,86.90
2022-08-05T03:59:55.030Z,88.10
2022-08-05T04:00:52.572Z,88.70
2022-08-05T04:01:52.357Z,88.24
2022-08-05T04:02:58.678Z,88.95
2022-08-05T04:04:09.409Z,89.34
2022-08-05T04:04:53.600Z,90.05
2022-08-05T04:05:52.251Z,90.29
2022-08-05T04:06:52.185Z,90.09
2022-08-05T04:07:58.017Z,90.49
2022-08-05T04:08:53.251Z,90.09
2022-08-05T04:09:53.503Z,90.94
2022-08-05T04:10:52.131Z,90.53
2022-08-05T04:11:52.514Z,91.03
2022-08-05T04:12:52.111Z,91.54
2022-08-05T04:13:53.583Z,92.10
2022-08-05T04:14:52.091Z,92.50
2022-08-05T04:16:03.393Z,92.40
2022-08-05T04:16:53.061Z,92.70
2022-08-05T04:17:56.289Z,92.80
2022-08-05T04:18:53.935Z,92.80
2022-08-05T04:19:54.561Z,92.70
2022-08-05T04:20:53.024Z,92.40
2022-08-05T04:22:08.320Z,92.70
2022-08-05T04:22:53.002Z,92.80
2022-08-05T04:23:57.137Z,93.20
2022-08-05T04:24:53.195Z,93.20
2022-08-05T04:26:00.497Z,93.30
2022-08-05T04:26:52.953Z,93.00
2022-08-05T04:27:57.227Z,93.10
2022-08-05T04:28:52.935Z,93.10
2022-08-05T04:29:51.904Z,93.40
2022-08-05T04:30:51.922Z,93.60
2022-08-05T04:31:51.903Z,93.65
2022-08-05T04:32:51.903Z,93.65
2022-08-05T04:34:18.975Z,93.74
2022-08-05T04:34:52.872Z,93.60
2022-08-05T04:36:09.500Z,93.65
2022-08-05T04:36:52.852Z,93.50
2022-08-05T04:38:02.829Z,92.74
2022-08-05T04:38:52.843Z,93.20
2022-08-05T04:39:52.905Z,93.40
2022-08-05T04:40:51.803Z,93.30
2022-08-05T04:41:52.704Z,93.40
2022-08-05T04:42:51.783Z,93.00
2022-08-05T04:43:52.128Z,92.80
2022-08-05T04:44:51.763Z,92.90
2022-08-05T04:45:54.953Z,92.84
2022-08-05T04:46:51.873Z,92.90
2022-08-05T04:47:51.714Z,92.74
2022-08-05T04:48:51.761Z,92.70
2022-08-05T04:50:02.582Z,92.50
2022-08-05T04:51:03.593Z,92.34
2022-08-05T04:52:00.460Z,92.65
2022-08-05T04:52:52.691Z,92.65
2022-08-05T04:53:51.653Z,92.74
2022-08-05T04:54:51.645Z,92.54
2022-08-05T04:56:14.812Z,92.14
2022-08-05T04:56:56.264Z,92.70
2022-08-05T04:57:54.234Z,93.00
2022-08-05T04:58:51.596Z,92.90
2022-08-05T04:59:51.576Z,92.54
2022-08-05T05:00:51.597Z,92.24
2022-08-05T05:02:35.012Z,92.14
2022-08-05T05:02:52.605Z,92.24
2022-08-05T05:03:51.976Z,92.44
2022-08-05T05:04:51.599Z,91.14
2022-08-05T05:06:39.351Z,91.34
2022-08-05T05:06:57.686Z,91.84
2022-08-05T05:07:52.879Z,91.44
2022-08-05T05:08:51.515Z,91.64
2022-08-05T05:09:51.466Z,91.94
2022-08-05T05:10:56.205Z,92.24
2022-08-05T05:11:53.068Z,92.14
2022-08-05T05:12:51.455Z,92.24
2022-08-05T05:13:51.436Z,92.34
2022-08-05T05:14:51.484Z,91.94
2022-08-05T05:16:00.508Z,90.23
2022-08-05T05:16:52.397Z,87.93
2022-08-05T05:17:56.764Z,89.63
2022-08-05T05:19:16.402Z,89.43
2022-08-05T05:19:52.357Z,89.59
2022-08-05T05:20:51.397Z,91.09
2022-08-05T05:21:51.337Z,91.89
2022-08-05T05:22:51.337Z,90.99
2022-08-05T05:24:04.003Z,89.79
2022-08-05T05:24:57.842Z,90.59
2022-08-05T05:25:52.296Z,90.49
2022-08-05T05:26:51.941Z,87.78
2022-08-05T05:27:54.018Z,89.34
2022-08-05T05:28:51.284Z,90.15
2022-08-05T05:30:03.868Z,90.15
2022-08-05T05:30:52.409Z,89.34
2022-08-05T05:31:51.238Z,84.93
2022-08-05T05:32:51.228Z,81.32
2022-08-05T05:33:59.632Z,83.23
2022-08-05T05:34:52.454Z,79.38
2022-08-05T05:35:51.198Z,78.18
2022-08-05T05:36:51.370Z,83.55
2022-08-05T05:38:00.214Z,85.66
2022-08-05T05:38:52.177Z,86.52
2022-08-05T05:39:51.175Z,87.02
2022-08-05T05:40:51.861Z,86.71
2022-08-05T05:41:54.300Z,87.16
2022-08-05T05:42:51.181Z,88.21
2022-08-05T05:43:57.549Z,88.86
2022-08-05T05:44:52.411Z,88.92
2022-08-05T05:45:52.120Z,88.12
2022-08-05T05:46:51.212Z,88.06
2022-08-05T05:48:06.464Z,88.06
2022-08-05T05:48:52.369Z,88.46
2022-08-05T05:49:56.977Z,88.66
2022-08-05T05:50:52.022Z,88.16
2022-08-05T05:51:51.176Z,87.05
2022-08-05T05:52:51.010Z,86.55
2022-08-05T05:53:58.122Z,87.86
2022-08-05T05:54:51.971Z,88.06
2022-08-05T05:56:00.656Z,88.02
2022-08-05T05:56:51.940Z,86.82
2022-08-05T05:57:52.661Z,87.32
2022-08-05T05:58:50.940Z,87.32
2022-08-05T05:59:50.931Z,87.71
2022-08-05T06:00:50.910Z,87.92
2022-08-05T06:01:57.039Z,86.61
2022-08-05T06:02:51.880Z,87.52
2022-08-05T06:04:00.584Z,87.12
2022-08-05T06:04:51.894Z,86.91
2022-08-05T06:05:54.135Z,84.11
2022-08-05T06:06:50.889Z,86.47
2022-08-05T06:08:01.254Z,87.48
2022-08-05T06:08:51.810Z,87.57
2022-08-05T06:10:00.917Z,87.37
2022-08-05T06:10:52.788Z,83.57
2022-08-05T06:12:02.023Z,84.17
2022-08-05T06:12:51.762Z,85.27
2022-08-05T06:13:54.012Z,86.68
2022-08-05T06:14:51.832Z,86.87
2022-08-05T06:16:31.451Z,85.73
2022-08-05T06:16:51.801Z,81.43
2022-08-05T06:17:53.638Z,82.63
2022-08-05T06:18:50.703Z,84.53
2022-08-05T06:19:56.733Z,81.53
2022-08-05T06:20:54.189Z,78.93
2022-08-05T06:21:50.690Z,82.73
2022-08-05T06:22:50.661Z,83.79
2022-08-05T06:23:50.661Z,79.49
2022-08-05T06:24:50.641Z,75.99
2022-08-05T06:26:12.495Z,79.96
2022-08-05T06:26:53.306Z,82.35
2022-08-05T06:28:12.714Z,83.25
2022-08-05T06:28:51.622Z,79.55
2022-08-05T06:30:04.323Z,80.85
2022-08-05T06:30:51.581Z,82.95
2022-08-05T06:31:50.733Z,82.71
2022-08-05T06:32:50.943Z,82.81
2022-08-05T06:34:07.432Z,82.25
2022-08-05T06:34:53.325Z,81.65
2022-08-05T06:36:07.829Z,82.45
2022-08-05T06:36:57.023Z,80.76
2022-08-05T06:37:58.382Z,75.56
2022-08-05T06:38:51.516Z,76.92
2022-08-05T06:39:50.482Z,80.71
2022-08-05T06:40:50.503Z,81.21
2022-08-05T06:41:50.584Z,82.01
2022-08-05T06:42:52.185Z,83.11
2022-08-05T06:43:59.266Z,80.45
2022-08-05T06:44:51.424Z,82.95
2022-08-05T06:46:06.753Z,83.15
2022-08-05T06:46:51.395Z,83.05
2022-08-05T06:48:36.208Z,83.89
2022-08-05T06:48:56.568Z,83.99
2022-08-05T06:50:00.657Z,84.49
2022-08-05T06:50:51.345Z,84.19
2022-08-05T06:51:50.454Z,84.89
2022-08-05T06:53:03.539Z,85.35
2022-08-05T06:53:53.349Z,84.65
2022-08-05T06:54:52.158Z,84.45
2022-08-05T06:55:50.371Z,84.85
2022-08-05T06:56:54.671Z,84.25
2022-08-05T06:58:03.003Z,80.15
2022-08-05T06:58:51.255Z,76.15
2022-08-05T06:59:55.081Z,80.62
2022-08-05T07:00:51.411Z,81.41
2022-08-05T07:01:52.766Z,79.65
2022-08-05T07:02:53.639Z,82.01
2022-08-05T07:03:50.284Z,80.71
2022-08-05T07:04:50.205Z,74.82
2022-08-05T07:05:50.215Z,80.11
2022-08-05T07:06:50.559Z,76.22
2022-08-05T07:07:50.327Z,79.38
2022-08-05T07:08:51.903Z,75.68
2022-08-05T07:09:58.341Z,80.18
2022-08-05T07:10:52.779Z,80.08
2022-08-05T07:11:51.725Z,81.77
2022-08-05T07:12:50.106Z,82.37
2022-08-05T07:13:58.382Z,82.57
2022-08-05T07:14:51.079Z,82.47
2022-08-05T07:16:02.007Z,82.47
2022-08-05T07:18:01.237Z,82.67
2022-08-05T07:18:01.835Z,82.47
2022-08-05T07:18:51.040Z,79.97
2022-08-05T07:20:32.301Z,81.98
2022-08-05T07:20:51.046Z,82.17
2022-08-05T07:22:00.421Z,82.28
2022-08-05T07:22:51.240Z,81.48
2022-08-05T07:23:52.193Z,81.37
2022-08-05T07:24:52.427Z,81.07
2022-08-05T07:25:56.022Z,80.38
2022-08-05T07:26:50.988Z,79.88
2022-08-05T07:27:58.852Z,77.88
2022-08-05T07:28:50.938Z,79.97
2022-08-05T07:30:27.196Z,81.63
2022-08-05T07:30:52.955Z,81.84
2022-08-05T07:31:55.072Z,80.64
2022-08-05T07:32:53.435Z,76.48
2022-08-05T07:33:49.992Z,79.54
2022-08-05T07:34:50.692Z,80.94
2022-08-05T07:36:01.877Z,80.98
2022-08-05T07:36:51.347Z,80.64
2022-08-05T07:37:50.039Z,80.44
2022-08-05T07:38:49.828Z,80.77
2022-08-05T07:40:25.952Z,81.77
2022-08-05T07:40:55.715Z,80.27
2022-08-05T07:42:13.331Z,80.27
2022-08-05T07:42:50.789Z,80.68
2022-08-05T07:43:49.787Z,81.77
2022-08-05T07:44:50.501Z,81.57
2022-08-05T07:45:56.993Z,81.37
2022-08-05T07:46:50.732Z,81.51
2022-08-05T07:47:50.453Z,82.41
2022-08-05T07:49:02.591Z,81.61
2022-08-05T07:49:54.211Z,82.21
2022-08-05T07:50:50.426Z,82.41
2022-08-05T07:51:54.336Z,82.71
2022-08-05T07:52:50.680Z,82.41
2022-08-05T07:53:50.548Z,82.15
2022-08-05T07:54:49.661Z,83.35
2022-08-05T07:56:05.287Z,83.55
2022-08-05T07:57:14.552Z,83.75
2022-08-05T07:57:58.833Z,84.15
2022-08-05T07:58:57.786Z,82.85
2022-08-05T07:59:50.620Z,82.85
2022-08-05T08:00:50.509Z,83.35
2022-08-05T08:01:51.981Z,84.25
2022-08-05T08:03:15.150Z,84.05
2022-08-05T08:03:51.421Z,82.95
2022-08-05T08:04:49.907Z,83.49
2022-08-05T08:05:50.065Z,84.49
2022-08-05T08:06:49.583Z,84.19
2022-08-05T08:07:59.053Z,78.89
2022-08-05T08:08:50.792Z,80.29
2022-08-05T08:09:49.564Z,83.15
2022-08-05T08:10:49.579Z,83.75
2022-08-05T08:11:54.353Z,83.35
2022-08-05T08:12:51.402Z,83.85
2022-08-05T08:14:00.825Z,82.75
2022-08-05T08:14:50.453Z,82.55
2022-08-05T08:16:34.643Z,82.81
2022-08-05T08:16:53.438Z,82.95
2022-08-05T08:17:52.372Z,82.85
2022-08-05T08:18:50.200Z,79.85
2022-08-05T08:20:10.450Z,80.35
2022-08-05T08:21:03.094Z,75.72
2022-08-05T08:21:50.417Z,79.78
2022-08-05T08:22:49.396Z,79.11
2022-08-05T08:24:03.779Z,79.08
2022-08-05T08:24:51.813Z,78.72
2022-08-05T08:26:00.611Z,79.17
2022-08-05T08:26:50.347Z,78.58
2022-08-05T08:27:51.223Z,75.95
2022-08-05T08:28:55.172Z,76.18
2022-08-05T08:30:06.016Z,75.95
2022-08-05T08:30:52.224Z,73.42
2022-08-05T08:31:49.277Z,76.11
2022-08-05T08:32:49.352Z,74.18
2022-08-05T08:33:51.767Z,75.48
2022-08-05T08:34:49.240Z,75.57
2022-08-05T08:35:52.462Z,75.48
2022-08-05T08:36:54.839Z,73.78
2022-08-05T08:37:53.582Z,72.28
2022-08-05T08:38:53.260Z,74.88
2022-08-05T08:39:49.652Z,73.08
2022-08-05T08:40:51.784Z,74.28
2022-08-05T08:41:50.790Z,75.61
2022-08-05T08:42:50.649Z,76.84
2022-08-05T08:45:22.306Z,77.48
2022-08-05T08:45:22.401Z,77.32
2022-08-05T08:45:50.245Z,75.38
2022-08-05T08:46:49.095Z,77.04
2022-08-05T08:48:07.113Z,74.85
2022-08-05T08:49:06.121Z,77.01
2022-08-05T08:50:05.840Z,76.54
2022-08-05T08:51:03.599Z,75.15
2022-08-05T08:52:03.098Z,76.98
2022-08-05T08:52:51.766Z,77.78
2022-08-05T08:53:49.756Z,78.02
2022-08-05T08:54:49.514Z,78.12
2022-08-05T08:56:03.818Z,78.75
2022-08-05T08:56:50.760Z,78.89
2022-08-05T08:57:58.427Z,79.49
2022-08-05T08:58:50.592Z,78.49
2022-08-05T08:59:49.701Z,78.36
2022-08-05T09:00:48.969Z,79.09
2022-08-05T09:01:57.246Z,79.09
2022-08-05T09:02:50.682Z,78.79
2022-08-05T09:03:54.386Z,79.99
2022-08-05T09:05:16.331Z,79.13
2022-08-05T09:06:07.987Z,78.13
2022-08-05T09:06:50.010Z,78.09
2022-08-05T09:07:57.079Z,77.39
2022-08-05T09:08:49.912Z,75.89
2022-08-05T09:09:48.934Z,78.49
2022-08-05T09:10:49.258Z,78.19
2022-08-05T09:11:53.649Z,79.39
2022-08-05T09:12:50.983Z,79.99
2022-08-05T09:14:09.165Z,80.07
2022-08-05T09:14:56.456Z,81.37
2022-08-05T09:15:49.796Z,79.17
2022-08-05T09:16:49.117Z,80.47
2022-08-05T09:17:49.824Z,80.87
2022-08-05T09:18:48.739Z,80.77
2022-08-05T09:20:01.723Z,81.30
2022-08-05T09:20:50.488Z,81.11
2022-08-05T09:22:23.490Z,82.31
2022-08-05T09:22:51.896Z,81.65
2022-08-05T09:23:48.688Z,79.54
2022-08-05T09:24:48.669Z,79.80
2022-08-05T09:26:02.192Z,81.57
2022-08-05T09:26:51.761Z,80.17
2022-08-05T09:28:03.934Z,80.36
2022-08-05T09:28:49.673Z,78.86
2022-08-05T09:29:48.659Z,79.47
2022-08-05T09:30:49.402Z,78.17
2022-08-05T09:32:46.433Z,79.27
2022-08-05T09:32:51.791Z,79.53
2022-08-05T09:33:49.594Z,79.53
2022-08-05T09:34:48.562Z,77.79
2022-08-05T09:35:48.574Z,78.09
2022-08-05T09:36:55.589Z,78.16
2022-08-05T09:38:17.389Z,75.76
2022-08-05T09:38:49.504Z,75.96
2022-08-05T09:39:52.422Z,75.62
2022-08-05T09:40:52.182Z,74.79
2022-08-05T09:41:56.149Z,74.21
2022-08-05T09:42:49.471Z,73.11
2022-08-05T09:43:49.424Z,72.49
2022-08-05T09:44:49.456Z,71.05
2022-08-05T09:46:06.757Z,70.92
2022-08-05T09:46:53.500Z,70.03
2022-08-05T09:47:56.128Z,68.00
2022-08-05T09:49:06.467Z,68.76
2022-08-05T09:50:01.632Z,68.13
2022-08-05T09:50:49.392Z,67.60
2022-08-05T09:51:50.231Z,66.51
2022-08-05T09:52:52.969Z,67.80
2022-08-05T09:53:54.951Z,67.60
2022-08-05T09:54:49.393Z,67.50
2022-08-05T09:55:58.343Z,67.33
2022-08-05T09:56:51.846Z,68.04
2022-08-05T09:57:49.028Z,68.33
2022-08-05T09:58:50.315Z,67.44
2022-08-05T09:59:48.832Z,67.11
2022-08-05T10:00:48.838Z,66.71
2022-08-05T10:01:48.281Z,67.30
2022-08-05T10:02:49.445Z,67.30
2022-08-05T10:03:59.054Z,66.71
2022-08-05T10:04:50.137Z,66.74
2022-08-05T10:05:48.984Z,67.07
2022-08-05T10:06:49.808Z,68.16
2022-08-05T10:08:11.119Z,67.97
2022-08-05T10:08:53.802Z,67.83
2022-08-05T10:09:49.933Z,67.24
2022-08-05T10:10:50.401Z,67.63
2022-08-05T10:11:50.013Z,66.17
2022-08-05T10:12:49.804Z,67.47
2022-08-05T10:13:49.178Z,68.16
2022-08-05T10:14:48.147Z,67.50
2022-08-05T10:15:48.134Z,68.50
2022-08-05T10:16:52.857Z,68.70
2022-08-05T10:17:56.856Z,68.76
2022-08-05T10:18:49.830Z,68.46
2022-08-05T10:20:03.948Z,68.07
2022-08-05T10:20:49.083Z,68.46
2022-08-05T10:21:48.066Z,67.93
2022-08-05T10:22:48.750Z,67.83
2022-08-05T10:24:00.015Z,66.64
2022-08-05T10:24:49.056Z,67.74
2022-08-05T10:25:48.029Z,67.40
2022-08-05T10:26:51.207Z,66.48
2022-08-05T10:28:13.340Z,64.66
2022-08-05T10:28:49.014Z,64.98
2022-08-05T10:30:41.227Z,67.11
2022-08-05T10:32:48.228Z,67.18
2022-08-05T10:32:53.996Z,67.04
2022-08-05T10:33:00.041Z,64.36
2022-08-05T10:33:54.109Z,64.36
2022-08-05T10:34:47.937Z,66.44
2022-08-05T10:35:59.023Z,66.15
2022-08-05T10:36:49.599Z,65.52
2022-08-05T10:37:47.868Z,64.92
2022-08-05T10:38:47.857Z,64.36
2022-08-05T10:40:03.219Z,64.29
2022-08-05T10:40:48.868Z,65.98
2022-08-05T10:41:47.978Z,65.88
2022-08-05T10:42:47.827Z,66.18
2022-08-05T10:43:47.967Z,64.00
2022-08-05T10:44:47.976Z,64.86
2022-08-05T10:45:48.006Z,65.25
2022-08-05T10:46:51.041Z,64.46
2022-08-05T10:48:30.158Z,63.07
2022-08-05T10:48:52.904Z,64.46
2022-08-05T10:50:31.660Z,64.33
2022-08-05T10:50:48.728Z,63.17
2022-08-05T10:51:59.804Z,64.00
2022-08-05T10:52:49.707Z,64.95
2022-08-05T10:53:48.482Z,64.19
2022-08-05T10:54:56.122Z,65.06
2022-08-05T10:56:05.138Z,65.06
2022-08-05T10:56:49.391Z,63.54
2022-08-05T10:57:51.245Z,63.90
2022-08-05T10:58:48.578Z,61.89
2022-08-05T11:00:02.043Z,61.19
2022-08-05T11:00:55.437Z,61.76
2022-08-05T11:01:54.016Z,59.84
2022-08-05T11:02:50.678Z,59.08
2022-08-05T11:03:47.692Z,61.29
2022-08-05T11:04:47.579Z,60.77
2022-08-05T11:05:47.550Z,60.64
2022-08-05T11:06:47.596Z,60.24
2022-08-05T11:08:01.330Z,60.24
2022-08-05T11:08:48.544Z,60.54
2022-08-05T11:09:47.562Z,58.88
2022-08-05T11:10:50.363Z,60.30
2022-08-05T11:11:53.613Z,61.62
2022-08-05T11:12:54.352Z,61.22
2022-08-05T11:13:57.884Z,62.12
2022-08-05T11:15:11.564Z,61.82
2022-08-05T11:16:00.120Z,61.10
2022-08-05T11:16:57.177Z,61.39
2022-08-05T11:18:00.451Z,59.91
2022-08-05T11:18:48.468Z,61.22
2022-08-05T11:20:10.165Z,61.35
2022-08-05T11:20:49.213Z,62.60
2022-08-05T11:21:49.511Z,63.49
2022-08-05T11:22:49.929Z,63.63
2022-08-05T11:24:04.590Z,64.62
2022-08-05T11:24:50.787Z,65.25
2022-08-05T11:26:05.273Z,65.35
2022-08-05T11:26:49.753Z,65.64
2022-08-05T11:27:51.656Z,65.18
2022-08-05T11:28:47.338Z,65.68
2022-08-05T11:29:47.294Z,66.41
2022-08-05T11:30:47.303Z,66.83
2022-08-05T11:31:58.661Z,67.83
2022-08-05T11:32:48.285Z,68.13
2022-08-05T11:33:48.034Z,67.63
2022-08-05T11:34:54.038Z,67.43
2022-08-05T11:36:08.180Z,66.83
2022-08-05T11:36:52.766Z,67.13
2022-08-05T11:38:28.524Z,66.53
2022-08-05T11:38:51.268Z,67.13
2022-08-05T11:39:48.306Z,66.80
2022-08-05T11:40:47.215Z,66.31
2022-08-05T11:41:56.329Z,65.21
2022-08-05T11:42:48.183Z,66.44
2022-08-05T11:44:05.874Z,66.64
2022-08-05T11:44:53.695Z,67.77
2022-08-05T11:46:29.865Z,67.77
2022-08-05T11:47:09.283Z,67.47
2022-08-05T11:47:48.713Z,66.34
2022-08-05T11:48:47.108Z,66.53
2022-08-05T11:49:49.882Z,65.84
2022-08-05T11:50:47.085Z,65.94
2022-08-05T11:51:49.229Z,65.74
2022-08-05T11:52:49.628Z,65.84
2022-08-05T11:53:47.035Z,65.84
2022-08-05T11:54:48.489Z,65.84
2022-08-05T11:55:48.448Z,65.61
2022-08-05T11:56:50.332Z,65.01
2022-08-05T11:58:09.677Z,64.39
2022-08-05T11:58:53.055Z,63.89
2022-08-05T11:59:49.642Z,63.69
2022-08-05T12:00:47.075Z,63.52
2022-08-05T12:01:47.937Z,62.72
2022-08-05T12:02:46.980Z,64.12
2022-08-05T12:03:56.105Z,63.42
2022-08-05T12:04:59.200Z,63.42
2022-08-05T12:05:47.900Z,63.65
2022-08-05T12:06:48.699Z,63.15
2022-08-05T12:08:08.221Z,63.98
2022-08-05T12:08:50.088Z,64.78
2022-08-05T12:09:53.033Z,64.31
2022-08-05T12:10:48.653Z,64.81
2022-08-05T12:11:46.829Z,64.61
2022-08-05T12:12:59.224Z,65.23
2022-08-05T12:13:49.871Z,65.14
2022-08-05T12:14:47.305Z,65.44
2022-08-05T12:15:49.938Z,65.26
2022-08-05T12:16:46.796Z,66.06
2022-08-05T12:18:04.425Z,65.97
2022-08-05T12:18:49.623Z,65.97
2022-08-05T12:20:27.017Z,65.77
2022-08-05T12:20:47.750Z,66.17
2022-08-05T12:21:46.728Z,65.77
2022-08-05T12:22:46.728Z,65.37
2022-08-05T12:23:47.729Z,65.40
2022-08-05T12:24:49.575Z,65.40
2022-08-05T12:25:46.690Z,65.53
2022-08-05T12:26:46.679Z,66.06
2022-08-05T12:27:53.106Z,66.96
2022-08-05T12:28:47.662Z,67.46
2022-08-05T12:29:46.680Z,67.46
2022-08-05T12:30:47.650Z,68.06
2022-08-05T12:31:53.284Z,68.66
2022-08-05T12:32:50.388Z,68.16
2022-08-05T12:33:46.590Z,68.86
2022-08-05T12:34:46.599Z,69.62
2022-08-05T12:35:46.641Z,69.32
2022-08-05T12:36:46.608Z,68.82
2022-08-05T12:37:46.671Z,68.10
2022-08-05T12:38:46.549Z,67.90
2022-08-05T12:39:48.774Z,66.17
2022-08-05T12:40:47.534Z,66.33
2022-08-05T12:41:46.503Z,65.23
2022-08-05T12:42:46.551Z,64.01
2022-08-05T12:43:46.481Z,63.11
2022-08-05T12:44:47.614Z,62.68
2022-08-05T12:45:50.097Z,62.61
2022-08-05T12:46:46.469Z,62.91
2022-08-05T12:48:17.715Z,63.01
2022-08-05T12:48:47.442Z,62.94
2022-08-05T12:50:03.449Z,63.14
2022-08-05T12:50:47.422Z,63.14
2022-08-05T12:52:12.717Z,63.74
2022-08-05T12:52:47.401Z,63.64